FRIANT DAM (MILLERTON) (MIL)

Elevation: 581' · SAN JOAQUIN R basin · Operator: US Bureau of Reclamation

Provisional data, subject to change.
Query executed Wednesday at 4:56:00   clock

Select a sensor type for a plot of data.
Note: Reservoir Flows are daily averages.

Earlier

Date RES ELE    STORAGE    RES CHG    TOC STO    ABV TOC    OUTFLOW    INFLOW    EVAP    FNF    RIV REL    PPT INC    SPILL   
 FEET   AF   AF   AF   AF   CFS   CFS   CFS   CFS   CFS   INCHES   CFS  
08/29/2016 515.00 262505 -1793 520500 -257995 2023 1154 35 39 e 443 0.00 0
08/30/2016 514.51 260890 -1615 520500 -259610 2153 1373 34 39 e 443 0.00 0
08/31/2016 513.99 259177 -1713 520500 -261323 2369 1535 30 39 e 442 0.00 0
09/01/2016 513.50 257576 -1601 520500 -262924 2238 1462 31 77 e 442 0.00 0
09/02/2016 513.16 256464 -1112 520500 -264036 1837 1307 31 77 e 441 0.00 0
09/03/2016 512.85 255454 -1010 520500 -265046 1595 1114 28 77 e 441 0.00 0
09/04/2016 512.45 254157 -1297 520500 -266343 1595 959 18 43 e 441 0.00 0
09/05/2016 511.91 252407 -1750 520500 -268093 1769 922 35 34 441 0.00 0
09/06/2016 511.40 250766 -1641 520500 -269734 1945 1145 27 42 e 440 0.00 0
09/07/2016 510.76 248712 -2054 520500 -- 2036 1027 27 47 e 440 0.00 0
09/08/2016 510.37 247466 -1246 520500 -273034 2061 1466 33 47 e 439 0.00 0
09/09/2016 510.04 246413 -1053 520500 -274087 1863 1357 25 104 e 439 0.00 0
09/10/2016 509.92 246031 -382 520500 -274469 1571 1407 29 104 e 438 0.00 0
09/11/2016 509.83 245745 -286 520500 -274755 1654 1537 27 220 438 0.00 0
09/12/2016 509.74 245459 -286 520500 -275041 1858 1745 31 127 438 0.00 0
09/13/2016 509.43 244474 -985 520500 -276026 1998 1531 30 157 e 438 0.00 0
09/14/2016 508.89 242761 -1713 520500 -277739 2038 1195 21 157 e 437 0.00 0
09/15/2016 508.52 241595 -1166 520500 -278905 1946 1381 23 112 437 0.00 0
09/16/2016 508.18 240523 -1072 520500 -279977 1734 1219 25 65 e 436 0.00 0
09/17/2016 507.98 239893 -630 520500 -280607 1499 1208 27 64 e 435 0.00 0
09/18/2016 507.76 239206 -687 520500 -281294 1630 1310 26 100 435 0.00 0
09/19/2016 507.46 238268 -938 520500 -282232 1800 1355 28 79 435 0.00 0
09/20/2016 507.10 237143 -1125 520500 -283357 1908 1373 32 66 418 0.00 0
09/21/2016 506.62 235652 -1491 520500 -284848 2041 1317 28 96 389 0.00 0
09/22/2016 506.10 234039 -1613 520500 -286461 1922 1127 18 42 e 389 0.00 0
09/23/2016 505.79 233083 -956 520500 -287417 1639 1175 18 42 e 389 0.00 0
09/24/2016 505.77 233021 -62 520500 -287479 1327 1322 26 69 389 0.00 0
09/25/2016 505.82 233175 154 520500 -287325 1311 1431 42 180 389 0.00 0
09/26/2016 505.70 232806 -369 520500 -287694 1479 1304 11 73 389 0.00 0
09/27/2016 505.54 232313 -493 -- -- -- -- -- -- -- -- --
09/28/2016 -- -- -- -- -- -- -- -- -- -- -- --

Later | Latest

Warning! This data is preliminary and subject to revision.

Show MIL Map | Plot MIL Data | 1 Month MIL Data | Real-Time MIL Data | MIL Info